Pine Top, Kentucky
Current Conditions -  °F | °C
As of 3:35 PM on Sunday 25 Jan 2015 (Local Time) from KPBX Reporting Station
Scattered Clouds Scattered Clouds  
Wind Chill: 49°   Ceiling: Unl
Heat Index: 49°   Visibility: 10mi
Dew Point: 32°   Wind: 0mph
Humidity: 52%   Direction: NA
Pressure: 29.68"   Gusts: NA
Location:  37.27°N, 82.87°W
Report Text: KPBX 252035Z AUTO 00000KT 10SM SCT120 09/00 A2968 RMK AO2 T00921001
Loading
Personal Weather Stations






























Interactive Weather Map New forecast layout! Learn more

10-Day Weather Forecast

Advertisements
Track Severe Weather on mobile